Time;durP1;ratioP1;P1;durP2;ratioP2;P2;SDS_P1;SDS_P2;PMS_P1;PMS_P2;Temp;Humidity;BMP_temperature;BMP_pressure;BME280_temperature;BME280_humidity;BME280_pressure;Samples;Min_cycle;Max_cycle;Signal;HPM_P1;HPM_P2
2023/01/19 00:01:30;;;;;;;38.53;7.97;;;384.00;2329.60;;;;;;4899489;29;20098;-81
2023/01/19 00:03:56;;;;;;;30.77;7.82;;;384.00;2329.60;;;;;;4897799;29;20093;-81
2023/01/19 00:06:22;;;;;;;38.45;8.90;;;384.00;2329.60;;;;;;4898435;29;20020;-82
2023/01/19 00:08:51;;;;;;;40.20;9.88;;;384.00;2329.60;;;;;;4898079;29;20116;-82
2023/01/19 00:11:17;;;;;;;38.85;8.38;;;384.00;2329.60;;;;;;4898974;29;20024;-81
2023/01/19 00:13:49;;;;;;;32.13;10.02;;;384.00;2329.60;;;;;;4888739;29;20450;-84
2023/01/19 00:16:17;;;;;;;37.13;10.57;;;384.50;2329.60;;;;;;4898961;29;20059;-79
2023/01/19 00:18:46;;;;;;;30.15;7.63;;;359.30;2329.60;;;;;;4881128;29;20033;-80
2023/01/19 00:21:15;;;;;;;32.17;7.70;;;359.30;2329.60;;;;;;4898557;29;20020;-85
2023/01/19 00:23:42;;;;;;;27.00;6.75;;;359.30;2329.60;;;;;;4899014;29;20609;-80
2023/01/19 00:26:09;;;;;;;38.42;9.35;;;384.00;2329.60;;;;;;4884427;29;20035;-82
2023/01/19 00:28:35;;;;;;;31.08;9.18;;;384.00;2329.60;;;;;;4884692;29;20052;-79
2023/01/19 00:31:01;;;;;;;48.42;14.55;;;359.30;2329.60;;;;;;4884583;29;20060;-80
2023/01/19 00:33:27;;;;;;;36.40;8.68;;;359.30;2329.60;;;;;;4902552;29;20032;-82
2023/01/19 00:35:53;;;;;;;46.40;15.52;;;384.00;2329.60;;;;;;4884715;29;20032;-79
2023/01/19 00:38:19;;;;;;;34.63;12.43;;;384.00;2329.60;;;;;;4885697;29;20059;-81
2023/01/19 00:40:45;;;;;;;33.67;8.77;;;384.00;2329.60;;;;;;4902610;29;20064;-82
2023/01/19 00:43:11;;;;;;;29.08;7.25;;;359.00;2329.60;;;;;;4885280;29;20032;-81
2023/01/19 00:45:37;;;;;;;37.90;6.32;;;359.30;2329.60;;;;;;4884594;29;20036;-81
2023/01/19 00:48:02;;;;;;;31.23;7.90;;;359.30;2329.60;;;;;;4883750;29;20036;-80
2023/01/19 00:50:30;;;;;;;35.63;8.85;;;359.30;2329.60;;;;;;4883276;29;20033;-81
2023/01/19 00:52:59;;;;;;;31.20;7.30;;;359.30;2329.60;;;;;;4884091;29;20032;-80
2023/01/19 00:55:29;;;;;;;34.80;9.80;;;359.30;2329.60;;;;;;4902017;29;20490;-78
2023/01/19 00:57:55;;;;;;;31.55;8.02;;;359.30;2329.60;;;;;;4885491;29;20039;-81
2023/01/19 01:00:22;;;;;;;36.17;8.07;;;359.30;2329.60;;;;;;4885487;29;20465;-84
2023/01/19 01:02:50;;;;;;;32.38;6.13;;;359.20;2329.60;;;;;;4885169;29;20039;-82
2023/01/19 01:05:17;;;;;;;35.25;9.77;;;359.30;2329.60;;;;;;4885261;29;20124;-84
2023/01/19 01:07:48;;;;;;;34.60;6.93;;;359.30;2329.60;;;;;;4901892;29;20036;-78
2023/01/19 01:10:20;;;;;;;29.05;6.55;;;359.30;2329.60;;;;;;4884166;29;20048;-83
2023/01/19 01:12:46;;;;;;;36.25;9.50;;;359.20;2329.60;;;;;;4884825;29;20033;-82
2023/01/19 01:15:14;;;;;;;34.65;8.73;;;359.20;2329.60;;;;;;4884487;29;20024;-81
2023/01/19 01:17:46;;;;;;;22.27;5.65;;;;;;;;;;4901384;29;20060;-79
2023/01/19 01:20:33;;;;;;;28.90;6.25;;;;;;;;;;4884938;29;20180;-81
2023/01/19 01:22:59;;;;;;;30.67;7.32;;;;;;;;;;4880495;29;20044;-81
2023/01/19 01:25:27;;;;;;;24.83;7.05;;;;;;;;;;4865773;29;20057;-83
2023/01/19 01:27:53;;;;;;;32.67;6.85;;;;;;;;;;4864229;29;20025;-80
2023/01/19 01:30:20;;;;;;;38.83;7.80;;;;;;;;;;4881651;29;20032;-81
2023/01/19 01:32:46;;;;;;;32.60;6.20;;;;;;;;;;4865180;29;20033;-83
2023/01/19 01:35:13;;;;;;;31.02;7.38;;;;;;;;;;4865435;29;20029;-79
2023/01/19 01:37:39;;;;;;;28.30;6.10;;;;;;;;;;4863965;29;20389;-80
2023/01/19 01:40:06;;;;;;;32.80;7.38;;;;;;;;;;4864872;29;20026;-80
2023/01/19 01:42:32;;;;;;;36.75;7.45;;;;;;;;;;4866042;29;20057;-81
2023/01/19 01:45:00;;;;;;;31.55;6.30;;;;;;;;;;4865628;29;20032;-86
2023/01/19 01:47:36;;;;;;;38.25;7.32;;;;;;;;;;4881944;29;20037;-82
2023/01/19 01:50:14;;;;;;;36.25;7.03;;;;;;;;;;4865661;29;20025;-82
2023/01/19 01:52:44;;;;;;;32.25;7.10;;;;;;;;;;4865533;29;20025;-83
2023/01/19 01:55:10;;;;;;;28.58;7.38;;;;;;;;;;4865350;29;20096;-83
2023/01/19 01:57:38;;;;;;;32.65;7.03;;;;;;;;;;4864426;29;20389;-79
2023/01/19 02:00:05;;;;;;;40.28;10.05;;;;;;;;;;4881616;29;20025;-80
2023/01/19 02:02:50;;;;;;;34.53;7.28;;;;;;;;;;4865082;29;20029;-81
2023/01/19 02:05:20;;;;;;;37.47;8.50;;;;;;;;;;4865038;29;20119;-81
2023/01/19 02:13:16;;;;;;;30.45;6.38;;;;;;;;;;4882004;29;20088;-79
2023/01/19 02:15:42;;;;;;;34.45;6.93;;;;;;;;;;4864780;29;20025;-83
2023/01/19 02:18:08;;;;;;;27.90;8.02;;;;;;;;;;4865006;29;20044;-83
2023/01/19 02:20:36;;;;;;;31.52;6.35;;;;;;;;;;4864900;29;20123;-81
2023/01/19 02:23:04;;;;;;;31.15;6.55;;;;;;;;;;4881356;29;20072;-81
2023/01/19 02:25:31;;;;;;;34.03;6.95;;;;;;;;;;4881259;29;20068;-80
2023/01/19 02:27:57;;;;;;;36.00;8.02;;;;;;;;;;4863746;29;20025;-83
2023/01/19 02:30:23;;;;;;;44.47;8.88;;;;;;;;;;4863575;29;20378;-81
2023/01/19 02:32:49;;;;;;;30.52;7.03;;;;;;;;;;4864917;29;20029;-80
2023/01/19 02:35:16;;;;;;;28.20;6.53;;;;;;;;;;4868640;29;20027;-81
2023/01/19 02:37:43;;;;;;;43.10;9.52;;;;;;;;;;4899335;29;20099;-80
2023/01/19 02:40:14;;;;;;;29.67;7.00;;;;;;;;;;4881893;29;20043;-81
2023/01/19 02:42:49;;;;;;;22.67;6.53;;;;;;;;;;4882484;29;20115;-79
2023/01/19 02:45:20;;;;;;;27.20;7.47;;;;;;;;;;4882316;29;20032;-81
2023/01/19 02:47:48;;;;;;;36.78;6.85;;;;;;;;;;4883095;29;20189;-83
2023/01/19 02:50:29;;;;;;;33.00;6.40;;;;;;;;;;4899404;29;20020;-80
2023/01/19 02:52:59;;;;;;;37.35;8.75;;;;;;;;;;4883081;29;20052;-81
2023/01/19 02:55:28;;;;;;;36.22;9.05;;;;;;;;;;4883130;29;20088;-81
2023/01/19 02:58:26;;;;;;;26.63;6.95;;;;;;;;;;4899226;29;20020;-79
2023/01/19 03:01:02;;;;;;;36.47;6.57;;;;;;;;;;4851630;29;20040;-80
2023/01/19 03:03:40;;;;;;;32.55;6.82;;;;;;;;;;4882535;29;20141;-80
2023/01/19 03:06:13;;;;;;;34.38;9.27;;;;;;;;;;4898102;29;20033;-80
2023/01/19 03:08:55;;;;;;;26.15;6.15;;;;;;;;;;4899565;29;20029;-81
2023/01/19 03:11:22;;;;;;;29.05;8.18;;;;;;;;;;4882646;29;20031;-80
2023/01/19 03:14:03;;;;;;;27.55;6.57;;;;;;;;;;4881980;29;20477;-79
2023/01/19 03:16:29;;;;;;;32.65;6.95;;;;;;;;;;4898840;29;20064;-78
2023/01/19 03:18:57;;;;;;;35.47;6.10;;;;;;;;;;4881944;29;20032;-79
2023/01/19 03:21:25;;;;;;;28.35;6.45;;;;;;;;;;4882387;29;20059;-79
2023/01/19 03:23:52;;;;;;;29.67;7.13;;;;;;;;;;4881282;29;20048;-81
2023/01/19 03:26:21;;;;;;;34.30;7.72;;;;;;;;;;4898702;29;20021;-80
2023/01/19 03:28:48;;;;;;;31.33;7.72;;;;;;;;;;4899164;29;20167;-82
2023/01/19 03:31:20;;;;;;;33.25;7.40;;;;;;;;;;4881678;29;20453;-79
2023/01/19 03:33:51;;;;;;;35.17;8.40;;;;;;;;;;4898419;29;20384;-78
2023/01/19 03:36:30;;;;;;;27.38;6.97;;;;;;;;;;4882409;29;20271;-78
2023/01/19 03:38:57;;;;;;;34.05;8.98;;;;;;;;;;4880977;29;20084;-76
2023/01/19 03:41:25;;;;;;;32.22;7.80;;;;;;;;;;4881291;29;20025;-83
2023/01/19 03:43:52;;;;;;;36.78;8.40;;;;;;;;;;4881847;29;20143;-82
2023/01/19 03:46:18;;;;;;;34.72;6.85;;;;;;;;;;4881526;29;20039;-79
2023/01/19 03:48:45;;;;;;;24.90;6.95;;;;;;;;;;4881883;29;20028;-81
2023/01/19 03:51:13;;;;;;;39.08;6.53;;;;;;;;;;4882166;29;20121;-80
2023/01/19 03:53:39;;;;;;;35.10;7.65;;;;;;;;;;4880654;29;20555;-81
2023/01/19 03:56:05;;;;;;;29.65;7.45;;;;;;;;;;4882093;29;20104;-79
2023/01/19 03:58:31;;;;;;;31.17;6.28;;;;;;;;;;4882075;29;20438;-78
2023/01/19 04:00:57;;;;;;;36.88;6.28;;;;;;;;;;4902640;29;20025;-81
2023/01/19 04:03:23;;;;;;;28.00;7.07;;;;;;;;;;4887715;29;20040;-82
2023/01/19 04:05:50;;;;;;;32.70;8.30;;;;;;;;;;4887446;29;20021;-80
2023/01/19 04:08:16;;;;;;;29.58;6.70;;;;;;;;;;4889693;29;20127;-79
2023/01/19 04:10:42;;;;;;;29.35;6.20;;;;;;;;;;4890352;29;20032;-81
2023/01/19 04:13:08;;;;;;;32.20;5.70;;;;;;;;;;4890967;29;20025;-74
2023/01/19 04:15:34;;;;;;;29.27;6.80;;;;;;;;;;4895839;29;20063;-74
2023/01/19 04:18:00;;;;;;;33.92;6.15;;;;;;;;;;4895659;29;20036;-74
2023/01/19 04:20:27;;;;;;;34.63;8.88;;;;;;;;;;4891428;29;20040;-81
2023/01/19 04:22:54;;;;;;;31.92;7.78;;;;;;;;;;4887514;29;20028;-81
2023/01/19 04:25:21;;;;;;;24.55;6.43;;;;;;;;;;4886892;29;20457;-82
2023/01/19 04:27:50;;;;;;;28.25;6.07;;;;;;;;;;4887875;29;20173;-82
2023/01/19 04:30:17;;;;;;;35.72;6.82;;;;;;;;;;4887620;29;20504;-79
2023/01/19 04:32:43;;;;;;;32.17;6.03;;;;;;;;;;4904030;29;20028;-81
2023/01/19 04:35:09;;;;;;;60.75;7.93;;;;;;;;;;4885762;29;20442;-80
2023/01/19 04:37:35;;;;;;;25.27;5.38;;;;;;;;;;4869070;29;20427;-81
2023/01/19 04:40:01;;;;;;;35.15;6.05;;;;;;;;;;4868337;29;20153;-80
2023/01/19 04:42:27;;;;;;;31.50;6.80;;;;;;;;;;4869048;29;20033;-79
2023/01/19 04:44:53;;;;;;;33.03;7.10;;;;;;;;;;4869314;29;20033;-82
2023/01/19 04:47:19;;;;;;;39.95;6.40;;;;;;;;;;4886045;29;20025;-81
2023/01/19 04:49:45;;;;;;;31.02;7.72;;;;;;;;;;4868615;29;20081;-81
2023/01/19 04:52:11;;;;;;;29.15;6.40;;;;;;;;;;4885640;29;20481;-82
2023/01/19 04:54:37;;;;;;;31.38;8.13;;;;;;;;;;4886006;29;20029;-80
2023/01/19 04:57:03;;;;;;;30.90;5.10;;;;;;;;;;4869191;29;20029;-82
2023/01/19 04:59:29;;;;;;;41.45;7.00;;;;;;;;;;4868889;29;20032;-81
2023/01/19 05:01:56;;;;;;;30.65;6.72;;;;;;;;;;4869279;29;20489;-83
2023/01/19 05:04:22;;;;;;;21.67;5.80;;;;;;;;;;4868744;29;20029;-84
2023/01/19 05:06:48;;;;;;;26.50;6.82;;;;;;;;;;4885896;29;20043;-80
2023/01/19 05:09:15;;;;;;;34.30;7.03;;;;;;;;;;4869279;29;20025;-79
2023/01/19 05:11:41;;;;;;;38.00;9.52;;;;;;;;;;4866677;29;20389;-81
2023/01/19 05:14:07;;;;;;;29.90;7.78;;;;;;;;;;4872264;29;20045;-78
2023/01/19 05:16:33;;;;;;;37.75;7.18;;;;;;;;;;4880956;29;20108;-79
2023/01/19 05:18:59;;;;;;;27.13;6.10;;;;;;;;;;4879599;29;20055;-79
2023/01/19 05:21:25;;;;;;;36.38;8.45;;;;;;;;;;4880611;29;20029;-81
2023/01/19 05:23:52;;;;;;;35.25;6.97;;;;;;;;;;4881016;29;20068;-81
2023/01/19 05:26:18;;;;;;;34.88;5.60;;;;;;;;;;4881019;29;20112;-77
2023/01/19 05:28:44;;;;;;;27.58;6.93;;;;;;;;;;4880909;29;20029;-79
2023/01/19 05:31:10;;;;;;;36.10;10.00;;;;;;;;;;4880499;29;20343;-84
2023/01/19 05:33:36;;;;;;;35.83;6.68;;;;;;;;;;4882564;29;20029;-83
2023/01/19 05:36:03;;;;;;;30.67;7.72;;;;;;;;;;4881277;29;20032;-78
2023/01/19 05:38:29;;;;;;;35.08;7.65;;;;;;;;;;4880210;29;20096;-79
2023/01/19 05:40:58;;;;;;;32.85;7.50;;;;;;;;;;4881837;29;20105;-81
2023/01/19 05:43:24;;;;;;;33.38;7.18;;;;;;;;;;4880657;29;20382;-79
2023/01/19 05:45:50;;;;;;;31.17;7.75;;;;;;;;;;4867546;29;20048;-80
2023/01/19 05:48:16;;;;;;;32.78;7.13;;;;;;;;;;4864900;29;20025;-79
2023/01/19 05:50:42;;;;;;;27.98;7.00;;;;;;;;;;4863724;29;20108;-81
2023/01/19 05:53:09;;;;;;;38.30;7.28;;;;;;;;;;4881304;29;20036;-81
2023/01/19 05:55:35;;;;;;;31.70;7.82;;;;;;;;;;4865420;29;20549;-80
2023/01/19 05:58:01;;;;;;;28.42;7.47;;;;;;;;;;4865170;29;20056;-84
2023/01/19 06:00:27;;;;;;;45.80;7.72;;;;;;;;;;4865066;29;20033;-82
2023/01/19 06:02:54;;;;;;;27.98;6.45;;;;;;;;;;4865141;29;20437;-83
2023/01/19 06:05:20;;;;;;;37.10;8.77;;;;;;;;;;4865267;29;20358;-81
2023/01/19 06:07:46;;;;;;;29.73;7.55;;;;;;;;;;4864827;29;20041;-80
2023/01/19 06:10:12;;;;;;;39.15;7.63;;;;;;;;;;4881398;29;20030;-80
2023/01/19 06:12:41;;;;;;;40.20;7.80;;;;;;;;;;4865095;29;20691;-79
2023/01/19 06:15:07;;;;;;;37.42;9.32;;;;;;;;;;4864106;29;20097;-79
2023/01/19 06:17:34;;;;;;;49.38;10.30;;;;;;;;;;4865149;29;20035;-82
2023/01/19 06:20:00;;;;;;;42.42;10.88;;;;;;;;;;4881768;29;20025;-80
2023/01/19 06:22:26;;;;;;;36.38;9.07;;;;;;;;;;4882350;29;20033;-81
2023/01/19 06:24:52;;;;;;;35.35;8.82;;;;;;;;;;4865886;29;20057;-79
2023/01/19 06:27:18;;;;;;;41.40;8.13;;;;;;;;;;4881489;29;20359;-82
2023/01/19 06:29:44;;;;;;;47.72;12.95;;;;;;;;;;4864689;29;20052;-83
2023/01/19 06:32:10;;;;;;;38.67;9.68;;;;;;;;;;4880060;29;20025;-81
2023/01/19 06:34:37;;;;;;;37.53;9.85;;;359.20;2329.60;;;;;;4864104;29;20470;-86
2023/01/19 06:37:03;;;;;;;39.40;15.07;;;358.80;2329.60;;;;;;4864039;29;20036;-84
2023/01/19 06:39:29;;;;;;;40.78;16.10;;;;;;;;;;4864765;29;20390;-83
2023/01/19 06:41:55;;;;;;;38.58;14.25;;;;;;;;;;4879702;29;20067;-83
2023/01/19 06:44:21;;;;;;;42.95;14.65;;;;;;;;;;4880570;29;20025;-86
2023/01/19 06:46:47;;;;;;;38.95;10.25;;;;;;;;;;4879685;29;20029;-84
2023/01/19 06:49:14;;;;;;;55.95;20.63;;;;;;;;;;4882280;29;20029;-87
2023/01/19 06:51:40;;;;;;;49.35;15.10;;;;;;;;;;4898525;29;20032;-86
2023/01/19 06:54:06;;;;;;;38.40;12.95;;;;;;;;;;4898676;29;20033;-84
2023/01/19 06:56:32;;;;;;;46.63;12.32;;;;;;;;;;4898261;29;20542;-84
2023/01/19 06:58:58;;;;;;;55.85;11.88;;;;;;;;;;4898096;29;20024;-80
2023/01/19 07:01:25;;;;;;;40.33;8.65;;;;;;;;;;4898371;29;20116;-83
2023/01/19 07:03:51;;;;;;;41.65;13.40;;;;;;;;;;4898265;29;20063;-81
2023/01/19 07:06:18;;;;;;;58.38;16.75;;;;;;;;;;4900822;29;20115;-84
2023/01/19 07:08:44;;;;;;;59.33;19.98;;;;;;;;;;4901509;29;20469;-87
2023/01/19 07:11:11;;;;;;;54.10;13.55;;;;;;;;;;4900674;29;20021;-83
2023/01/19 07:13:37;;;;;;;43.10;10.85;;;;;;;;;;4900859;29;20028;-83
2023/01/19 07:16:09;;;;;;;55.05;13.20;;;;;;;;;;4900581;29;20050;-84
2023/01/19 07:18:36;;;;;;;44.80;10.73;;;;;;;;;;4901104;29;20027;-83
2023/01/19 07:21:03;;;;;;;50.63;15.57;;;;;;;;;;4901190;29;20472;-85
2023/01/19 07:23:29;;;;;;;53.13;17.90;;;;;;;;;;4899866;29;20036;-83
2023/01/19 07:26:00;;;;;;;52.15;21.02;;;;;;;;;;4901194;29;20024;-85
2023/01/19 07:28:26;;;;;;;55.95;20.02;;;;;;;;;;4918375;29;20024;-85
2023/01/19 07:30:56;;;;;;;48.22;19.40;;;;;;;;;;4900913;29;20032;-87
2023/01/19 07:33:23;;;;;;;52.60;19.23;;;;;;;;;;4901146;29;20036;-84
2023/01/19 07:35:50;;;;;;;48.08;14.57;;;;;;;;;;4900474;29;20024;-83
2023/01/19 07:38:17;;;;;;;50.40;18.65;;;;;;;;;;4901055;29;20032;-84
2023/01/19 07:40:45;;;;;;;46.50;16.83;;;;;;;;;;4918100;29;20028;-84
2023/01/19 07:43:12;;;;;;;39.90;15.75;;;;;;;;;;4901074;29;20472;-85
2023/01/19 07:45:38;;;;;;;39.53;10.93;;;;;;;;;;4900566;29;20040;-86
2023/01/19 07:48:04;;;;;;;38.72;13.98;;;;;;;;;;4901340;29;20362;-86
2023/01/19 07:50:30;;;;;;;47.70;19.95;;;;;;;;;;4900979;29;20035;-84
2023/01/19 07:52:56;;;;;;;36.50;13.48;;;;;;;;;;4900236;29;20028;-86
2023/01/19 07:55:23;;;;;;;47.03;16.27;;;;;;;;;;4886814;29;20032;-84
2023/01/19 07:57:50;;;;;;;39.25;13.52;;;;;;;;;;4882099;29;20032;-87
2023/01/19 08:00:23;;;;;;;44.05;13.73;;;;;;;;;;4882110;29;20035;-85
2023/01/19 08:02:50;;;;;;;45.33;13.38;;;;;;;;;;4882250;29;20031;-86
2023/01/19 08:05:16;;;;;;;57.85;22.88;;;;;;;;;;4882010;29;20135;-83
2023/01/19 08:07:44;;;;;;;79.78;35.10;;;;;;;;;;4898339;29;20484;-85
2023/01/19 08:10:11;;;;;;;59.65;27.90;;;;;;;;;;4881936;29;20029;-86
2023/01/19 08:12:37;;;;;;;47.13;22.25;;;;;;;;;;4898477;29;20084;-84
2023/01/19 08:15:03;;;;;;;54.45;26.60;;;308.00;2304.00;;;;;;4882199;29;20033;-85
2023/01/19 08:17:28;;;;;;;29.23;11.90;;;307.80;2304.00;;;;;;4881942;29;20469;-87
2023/01/19 08:19:54;;;;;;;40.45;15.98;;;307.60;2304.00;;;;;;4899000;29;20111;-82
2023/01/19 08:22:20;;;;;;;58.00;27.70;;;307.60;2304.00;;;;;;4882067;29;20072;-83
2023/01/19 08:24:45;;;;;;;49.67;23.48;;;307.70;2304.00;;;;;;4881767;29;20547;-84
2023/01/19 08:27:11;;;;;;;43.50;18.55;;;307.60;2304.00;;;;;;4881902;29;20037;-85
2023/01/19 08:29:37;;;;;;;33.38;16.55;;;307.70;2304.00;;;;;;4882021;29;20024;-85
2023/01/19 08:32:03;;;;;;;39.92;18.88;;;307.70;2304.00;;;;;;4881334;29;20021;-85
2023/01/19 08:34:29;;;;;;;34.97;17.30;;;307.80;2304.00;;;;;;4881879;29;20044;-83
2023/01/19 08:36:56;;;;;;;41.83;20.58;;;307.80;2304.00;;;;;;4882028;29;20036;-88
2023/01/19 08:39:23;;;;;;;34.00;17.48;;;307.80;2304.00;;;;;;4898411;29;20054;-89
2023/01/19 08:41:52;;;;;;;24.30;13.50;;;307.80;2304.00;;;;;;4897066;29;20035;-85
2023/01/19 08:44:19;;;;;;;36.55;19.63;;;307.70;2304.00;;;;;;4882544;29;20119;-86
2023/01/19 08:46:45;;;;;;;21.73;12.38;;;307.60;2304.00;;;;;;4900794;29;20096;-83
2023/01/19 08:49:11;;;;;;;30.63;14.88;;;307.70;2304.00;;;;;;4887113;29;20033;-84
2023/01/19 08:51:37;;;;;;;46.80;24.40;;;307.80;2304.00;;;;;;4891300;29;20426;-78
2023/01/19 08:54:03;;;;;;;59.10;29.20;;;307.80;2304.00;;;;;;4908169;29;20044;-78
2023/01/19 08:56:29;;;;;;;22.52;14.02;;;307.80;2304.00;;;;;;4892510;29;20057;-79
2023/01/19 08:58:54;;;;;;;19.33;11.43;;;307.70;2304.00;;;;;;4886555;29;20422;-84
2023/01/19 09:01:21;;;;;;;14.27;7.00;;;307.60;2304.00;;;;;;4886446;29;20032;-83
2023/01/19 09:03:46;;;;;;;20.30;7.97;;;307.50;2304.00;;;;;;4885102;29;20095;-87
2023/01/19 09:06:15;;;;;;;15.63;8.02;;;;;;;;;;4885096;29;20124;-83
2023/01/19 09:08:42;;;;;;;36.80;19.75;;;;;;;;;;4885234;29;20035;-86
2023/01/19 09:11:12;;;;;;;20.85;10.98;;;;;;;;;;4885154;29;20028;-86
2023/01/19 09:13:38;;;;;;;22.13;9.75;;;;;;;;;;4879752;29;20061;-82
2023/01/19 09:16:06;;;;;;;36.78;21.25;;;;;;;;;;4865245;29;20036;-86
2023/01/19 09:18:33;;;;;;;27.25;16.60;;;;;;;;;;4882652;29;20469;-86
2023/01/19 09:20:59;;;;;;;17.63;10.55;;;;;;;;;;4866289;29;20474;-86
2023/01/19 09:23:25;;;;;;;22.30;14.98;;;;;;;;;;4865440;29;20025;-86
2023/01/19 09:26:02;;;;;;;29.15;19.33;;;;;;;;;;4866002;29;20033;-85
2023/01/19 09:28:28;;;;;;;53.72;34.38;;;;;;;;;;4866356;29;20057;-86
2023/01/19 09:30:54;;;;;;;29.70;17.73;;;;;;;;;;4865416;29;20025;-81
2023/01/19 09:33:21;;;;;;;29.10;20.13;;;307.50;2304.00;;;;;;4883106;29;20470;-85
2023/01/19 09:35:47;;;;;;;25.58;14.90;;;;;;;;;;4872814;29;20055;-85
2023/01/19 09:38:15;;;;;;;31.00;19.33;;;;;;;;;;4884392;29;20024;-86
2023/01/19 09:40:48;;;;;;;29.88;19.30;;;;;;;;;;4883767;29;20021;-84
2023/01/19 09:43:18;;;;;;;14.32;7.13;;;;;;;;;;4884642;29;20024;-81
2023/01/19 09:45:51;;;;;;;14.20;8.07;;;;;;;;;;4884044;29;20051;-84
2023/01/19 09:48:23;;;;;;;15.43;7.82;;;;;;;;;;4884284;29;20043;-86
2023/01/19 09:50:49;;;;;;;12.73;6.35;;;;;;;;;;4900498;29;20032;-85
2023/01/19 09:53:27;;;;;;;14.93;6.68;;;;;;;;;;4883866;29;20089;-86
2023/01/19 09:55:53;;;;;;;14.25;8.25;;;;;;;;;;4884223;29;20032;-87
2023/01/19 09:58:19;;;;;;;12.30;7.20;;;;;;;;;;4882418;29;20017;-84
2023/01/19 10:00:50;;;;;;;21.42;13.88;;;;;;;;;;4884071;29;20074;-85
2023/01/19 10:03:16;;;;;;;13.75;8.70;;;;;;;;;;4892332;29;20044;-81
2023/01/19 10:05:52;;;;;;;16.20;9.23;;;;;;;;;;4895224;29;20106;-84
2023/01/19 10:08:27;;;;;;;17.67;10.18;;;;;;;;;;4886496;29;20140;-84
2023/01/19 10:10:54;;;;;;;13.20;8.32;;;;;;;;;;4885370;29;20048;-86
2023/01/19 10:13:25;;;;;;;13.45;7.80;;;;;;;;;;4883445;29;20020;-86
2023/01/19 10:16:09;;;;;;;12.43;7.70;;;;;;;;;;4883925;29;20029;-88
2023/01/19 10:18:45;;;;;;;24.02;14.95;;;;;;;;;;4884059;29;20115;-85
2023/01/19 10:21:14;;;;;;;20.58;11.88;;;;;;;;;;4900814;29;20115;-89
2023/01/19 10:23:43;;;;;;;30.05;17.30;;;;;;;;;;4883867;29;20024;-84
2023/01/19 10:26:19;;;;;;;19.55;12.40;;;;;;;;;;4883579;29;20120;-86
2023/01/19 10:28:48;;;;;;;15.13;8.02;;;307.30;2304.00;;;;;;4883080;29;20032;-86
2023/01/19 10:31:17;;;;;;;21.77;13.65;;;282.50;2278.40;;;;;;4883503;29;20100;-84
2023/01/19 10:33:43;;;;;;;16.63;10.75;;;282.50;2278.40;;;;;;4899815;29;20108;-85
2023/01/19 10:36:20;;;;;;;17.73;11.85;;;282.50;2278.40;;;;;;4883362;29;20124;-84
2023/01/19 10:38:46;;;;;;;18.90;11.25;;;282.50;2278.40;;;;;;4883466;29;20025;-82
2023/01/19 10:41:38;;;;;;;15.02;8.35;;;282.50;2278.40;;;;;;4883034;29;20087;-87
2023/01/19 10:44:04;;;;;;;17.13;10.65;;;282.50;2278.40;;;;;;4875049;29;20127;-84
2023/01/19 10:46:30;;;;;;;12.93;7.60;;;;;;;;;;4882834;29;20041;-85
2023/01/19 10:48:56;;;;;;;12.95;6.78;;;;;;;;;;4883070;29;20033;-83
2023/01/19 10:51:23;;;;;;;14.27;7.55;;;;;;;;;;4883458;29;20381;-81
2023/01/19 10:53:57;;;;;;;13.98;7.93;;;282.40;2278.40;;;;;;4900090;29;20029;-88
2023/01/19 10:56:34;;;;;;;9.38;5.75;;;282.20;2278.40;;;;;;4883170;29;20036;-86
2023/01/19 10:59:02;;;;;;;11.30;6.15;;;282.10;2278.40;;;;;;4883456;29;20429;-80
2023/01/19 11:01:29;;;;;;;20.85;9.40;;;282.10;2278.40;;;;;;4882946;29;20029;-85
2023/01/19 11:04:04;;;;;;;38.55;18.52;;;281.90;2278.40;;;;;;4888564;29;20040;-87
2023/01/19 11:06:31;;;;;;;20.02;10.88;;;282.00;2278.40;;;;;;4886022;29;20107;-88
2023/01/19 11:09:18;;;;;;;10.65;7.03;;;282.00;2278.40;;;;;;4889436;29;20032;-85
2023/01/19 11:11:50;;;;;;;19.45;10.25;;;281.90;2278.40;;;;;;4884030;29;20077;-83
2023/01/19 11:14:21;;;;;;;12.80;6.13;;;281.90;2278.40;;;;;;4884243;29;20036;-86
2023/01/19 11:16:51;;;;;;;23.27;10.35;;;281.90;2278.40;;;;;;4883484;29;20060;-86
2023/01/19 11:19:25;;;;;;;12.18;7.15;;;281.80;2278.40;;;;;;4887740;29;20048;-84
2023/01/19 11:21:51;;;;;;;21.05;10.93;;;281.80;2278.40;;;;;;4883392;29;20447;-87
2023/01/19 11:24:17;;;;;;;14.50;7.75;;;281.80;2278.40;;;;;;4875674;29;20057;-86
2023/01/19 11:26:56;;;;;;;20.65;10.98;;;281.80;2278.40;;;;;;4886290;29;20058;-83
2023/01/19 11:29:25;;;;;;;28.75;16.98;;;281.70;2278.40;;;;;;4871551;29;20454;-84
2023/01/19 11:31:53;;;;;;;27.85;13.82;;;281.80;2278.40;;;;;;4889547;29;20072;-86
2023/01/19 11:34:31;;;;;;;17.83;8.07;;;281.80;2278.40;;;;;;4873499;29;20033;-84
2023/01/19 11:37:03;;;;;;;12.60;6.90;;;281.80;2278.40;;;;;;4870216;29;20032;-87
2023/01/19 11:39:31;;;;;;;18.50;9.98;;;281.90;2278.40;;;;;;4870381;29;20029;-85
2023/01/19 11:42:03;;;;;;;11.85;7.25;;;281.90;2278.40;;;;;;4873864;29;20385;-84
2023/01/19 11:44:38;;;;;;;15.57;8.23;;;282.00;2278.40;;;;;;4868529;29;20032;-83
2023/01/19 11:47:24;;;;;;;17.92;7.28;;;282.00;2278.40;;;;;;4862755;29;20037;-84
2023/01/19 11:50:12;;;;;;;19.88;10.57;;;282.00;2278.40;;;;;;4854392;29;20029;-85
2023/01/19 11:52:52;;;;;;;24.77;14.38;;;282.00;2278.40;;;;;;4867291;29;20025;-81
2023/01/19 11:55:32;;;;;;;18.30;10.70;;;281.90;2278.40;;;;;;4860700;29;20040;-84
2023/01/19 11:57:58;;;;;;;19.33;9.88;;;281.90;2278.40;;;;;;4862800;29;20036;-86
2023/01/19 12:00:33;;;;;;;18.38;10.82;;;281.90;2278.40;;;;;;4868286;29;20021;-82
2023/01/19 12:03:07;;;;;;;21.20;11.10;;;281.90;2278.40;;;;;;4885675;29;20422;-82
2023/01/19 12:05:37;;;;;;;15.48;8.82;;;282.00;2278.40;;;;;;4881664;29;20127;-81
2023/01/19 12:08:06;;;;;;;20.25;10.27;;;282.00;2278.40;;;;;;4873712;29;20053;-86
2023/01/19 12:10:37;;;;;;;29.20;14.48;;;282.00;2278.40;;;;;;4880357;29;20096;-84
2023/01/19 12:13:02;;;;;;;23.08;9.13;;;282.10;2278.40;;;;;;4862936;29;20128;-82
2023/01/19 12:15:31;;;;;;;15.18;6.80;;;282.00;2278.40;;;;;;4880318;29;20104;-83
2023/01/19 12:18:00;;;;;;;23.02;12.73;;;282.00;2278.40;;;;;;4862800;29;20033;-84
2023/01/19 12:20:46;;;;;;;10.02;5.72;;;282.10;2278.40;;;;;;4863282;29;20033;-86
2023/01/19 12:23:27;;;;;;;13.75;6.47;;;282.00;2278.40;;;;;;4867332;29;20040;-84
2023/01/19 12:26:33;;;;;;;11.57;6.18;;;282.00;2278.40;;;;;;4882658;29;20048;-85
2023/01/19 12:29:23;;;;;;;18.40;8.43;;;282.00;2278.40;;;;;;4884681;29;20060;-89
2023/01/19 12:32:15;;;;;;;22.50;10.65;;;282.00;2278.40;;;;;;4896726;29;20033;-84
2023/01/19 12:34:42;;;;;;;21.08;7.70;;;282.00;2278.40;;;;;;4876614;29;20032;-84
2023/01/19 12:37:29;;;;;;;13.80;7.18;;;281.90;2278.40;;;;;;4898553;29;20035;-83
2023/01/19 12:40:01;;;;;;;24.50;13.05;;;281.90;2278.40;;;;;;4898246;29;20036;-82
2023/01/19 12:42:28;;;;;;;12.48;6.50;;;281.90;2278.40;;;;;;4902911;29;20043;-85
2023/01/19 12:45:12;;;;;;;11.60;6.03;;;281.90;2278.40;;;;;;4904262;29;20025;-81
2023/01/19 12:47:38;;;;;;;17.92;8.68;;;281.90;2278.40;;;;;;4900625;29;20051;-84
2023/01/19 12:50:10;;;;;;;15.30;8.65;;;281.90;2278.40;;;;;;4878483;29;20033;-86
2023/01/19 12:52:50;;;;;;;18.00;8.75;;;281.90;2278.40;;;;;;4879061;29;20069;-84
2023/01/19 12:55:37;;;;;;;14.43;7.80;;;281.80;2278.40;;;;;;4879500;29;20446;-84
2023/01/19 12:58:13;;;;;;;17.77;9.50;;;281.80;2278.40;;;;;;4885687;29;20077;-87
2023/01/19 13:00:47;;;;;;;15.10;9.02;;;281.80;2278.40;;;;;;4901935;29;20032;-87
2023/01/19 13:03:16;;;;;;;18.35;10.35;;;281.80;2278.40;;;;;;4901148;29;20032;-86
2023/01/19 13:05:41;;;;;;;20.38;12.23;;;281.80;2278.40;;;;;;4900513;29;20037;-83
2023/01/19 13:08:07;;;;;;;18.15;11.23;;;281.80;2278.40;;;;;;4901411;29;20036;-83
2023/01/19 13:10:58;;;;;;;29.63;16.70;;;281.80;2278.40;;;;;;4906013;29;20550;-84
2023/01/19 13:13:26;;;;;;;22.10;14.18;;;281.80;2278.40;;;;;;4900004;29;20033;-82
2023/01/19 13:15:53;;;;;;;31.77;20.52;;;281.70;2278.40;;;;;;4889286;29;20044;-78
2023/01/19 13:18:24;;;;;;;26.05;17.92;;;281.70;2278.40;;;;;;4896384;29;20025;-76
2023/01/19 13:21:03;;;;;;;24.25;17.05;;;281.70;2278.40;;;;;;4899042;29;20033;-79
2023/01/19 13:23:51;;;;;;;19.83;13.20;;;281.80;2278.40;;;;;;4888182;29;20028;-83
2023/01/19 13:26:32;;;;;;;20.38;13.82;;;281.90;2278.40;;;;;;4908925;29;20055;-82
2023/01/19 13:29:14;;;;;;;27.48;16.77;;;281.90;2278.40;;;;;;4893832;29;20090;-85
2023/01/19 13:31:43;;;;;;;32.67;17.52;;;282.00;2278.40;;;;;;4903855;29;20035;-84
2023/01/19 13:34:15;;;;;;;30.52;20.50;;;282.00;2278.40;;;;;;4902577;29;20036;-84
2023/01/19 13:36:45;;;;;;;38.88;26.20;;;282.00;2278.40;;;;;;4903083;29;20084;-83
2023/01/19 13:39:19;;;;;;;31.48;20.27;;;282.10;2278.40;;;;;;4903107;29;20039;-81
2023/01/19 13:41:46;;;;;;;27.38;19.25;;;282.00;2278.40;;;;;;4903074;29;20042;-80